Peru, Nebraska
Current Conditions -  °F | °C
As of 7:35 AM on Wednesday 26 Nov 2014 (Local Time) from KAFK Reporting Station
Overcast Overcast  
Wind Chill: 28°   Ceiling: 2000
Heat Index: 37°   Visibility: 10mi
Dew Point: 31°   Wind: 17mph
Humidity: 77%   Direction: 320°NW
Pressure: 29.91"   Gusts: 24mph
Location:  40.47°N, 95.73°W
Report Text: KAFK 261335Z AUTO 32015G21KT 10SM OVC020 03/M01 A2991 RMK AO2 T00301006
Loading
Personal Weather Stations






























Interactive Weather Map New forecast layout! Learn more

10-Day Weather Forecast

Advertisements
Track Severe Weather on mobile